Time;durP1;ratioP1;P1;durP2;ratioP2;P2;SDS_P1;SDS_P2;PMS_P1;PMS_P2;Temp;Humidity;BMP_temperature;BMP_pressure;BME280_temperature;BME280_humidity;BME280_pressure;Samples;Min_cycle;Max_cycle;Signal;HPM_P1;HPM_P2
2023/06/24 00:00:18;;;;;;;2.00;0.95;;;;;;;20.29;55.25;102507.25;4994022;28;96892;-27
2023/06/24 00:02:45;;;;;;;2.45;1.00;;;;;;;20.28;54.92;102508.22;4995294;28;101358;-26
2023/06/24 00:05:10;;;;;;;2.03;1.15;;;;;;;20.18;55.33;102515.44;4996301;28;101165;-27
2023/06/24 00:07:43;;;;;;;1.42;1.02;;;;;;;20.19;55.32;102519.97;4996573;28;96767;-32
2023/06/24 00:10:13;;;;;;;2.78;1.10;;;;;;;20.18;55.58;102507.19;4993635;28;97247;-26
2023/06/24 00:12:39;;;;;;;2.60;1.05;;;;;;;20.20;55.53;102513.44;4994430;28;97534;-31
2023/06/24 00:15:06;;;;;;;1.88;1.15;;;;;;;20.19;55.78;102505.28;4994647;28;99378;-29
2023/06/24 00:17:31;;;;;;;1.63;0.98;;;;;;;20.13;56.08;102509.41;4993224;28;97112;-33
2023/06/24 00:19:57;;;;;;;1.88;0.93;;;;;;;20.14;56.21;102523.06;4994970;28;97074;-28
2023/06/24 00:22:22;;;;;;;1.45;0.77;;;;;;;20.09;56.40;102522.53;4995013;28;98913;-26
2023/06/24 00:24:47;;;;;;;3.08;1.30;;;;;;;20.03;56.58;102517.47;4996954;28;98751;-26
2023/06/24 00:27:13;;;;;;;3.35;1.38;;;;;;;19.99;56.69;102517.81;4997769;28;96586;-27
2023/06/24 00:29:38;;;;;;;2.50;0.65;;;;;;;19.96;56.94;102518.06;4997859;28;96901;-26
2023/06/24 00:32:04;;;;;;;1.92;1.00;;;;;;;19.93;57.13;102520.03;4996430;28;103035;-26
2023/06/24 00:34:29;;;;;;;4.28;0.90;;;;;;;19.90;57.48;102530.38;4996403;28;99393;-27
2023/06/24 00:36:55;;;;;;;2.15;1.10;;;;;;;19.86;57.80;102532.50;4996987;28;97082;-26
2023/06/24 00:39:20;;;;;;;2.13;1.00;;;;;;;19.84;57.99;102522.59;4997258;28;96738;-26
2023/06/24 00:41:46;;;;;;;2.05;1.00;;;;;;;19.72;58.49;102518.88;4996647;28;99266;-27
2023/06/24 00:44:12;;;;;;;2.40;1.02;;;;;;;19.70;58.32;102521.75;4996946;28;97845;-27
2023/06/24 00:46:39;;;;;;;1.15;0.73;;;;;;;19.61;58.66;102516.00;4995800;28;96820;-26
2023/06/24 00:49:05;;;;;;;2.45;1.05;;;;;;;19.56;58.58;102515.47;4996784;28;96865;-27
2023/06/24 00:51:32;;;;;;;1.67;1.05;;;;;;;19.57;58.83;102519.97;4996658;28;97940;-26
2023/06/24 00:53:57;;;;;;;2.13;1.23;;;;;;;19.48;59.24;102525.16;4995545;28;100805;-26
2023/06/24 00:56:29;;;;;;;2.33;1.27;;;;;;;19.46;59.63;102529.88;4997109;28;96561;-27
2023/06/24 00:58:55;;;;;;;3.22;1.23;;;;;;;19.36;59.41;102508.69;4997154;28;96554;-26
2023/06/24 01:01:20;;;;;;;3.17;1.48;;;;;;;19.43;59.83;102518.25;4994438;28;101010;-27
2023/06/24 01:03:47;;;;;;;1.77;1.10;;;;;;;19.36;59.61;102512.31;4996540;28;97832;-26
2023/06/24 01:06:13;;;;;;;2.03;0.95;;;;;;;19.39;60.05;102519.44;4995450;28;96765;-27
2023/06/24 01:08:38;;;;;;;1.75;1.00;;;;;;;19.30;60.29;102513.59;4996613;28;96818;-26
2023/06/24 01:11:04;;;;;;;2.17;1.20;;;;;;;19.22;60.34;102504.19;4996460;28;98330;-27
2023/06/24 01:13:30;;;;;;;2.30;1.33;;;;;;;19.27;60.65;102510.22;4995232;28;97725;-26
2023/06/24 01:16:00;;;;;;;3.47;1.23;;;;;;;19.26;60.33;102508.47;4996635;28;96757;-26
2023/06/24 01:18:47;;;;;;;2.92;1.30;;;;;;;19.26;61.29;102508.47;4995625;28;96774;-26
2023/06/24 01:21:33;;;;;;;1.23;0.80;;;;;;;19.25;60.97;102513.06;4994908;28;100693;-26
2023/06/24 01:24:12;;;;;;;1.85;0.88;;;;;;;19.20;61.15;102498.78;4994995;28;99582;-27
2023/06/24 01:27:19;;;;;;;1.65;1.00;;;;;;;19.20;62.18;102500.66;4995856;28;96559;-28
2023/06/24 01:30:11;;;;;;;2.92;1.10;;;;;;;19.14;61.81;102495.59;4995075;28;96578;-26
2023/06/24 01:32:49;;;;;;;2.13;1.23;;;;;;;19.14;61.92;102488.25;4994042;28;98822;-26
2023/06/24 01:35:23;;;;;;;2.53;1.30;;;;;;;19.09;62.45;102491.31;4993538;28;101033;-27
2023/06/24 01:37:51;;;;;;;2.97;1.20;;;;;;;19.02;62.71;102483.59;4995009;28;96762;-26
2023/06/24 01:40:30;;;;;;;3.33;1.10;;;;;;;19.01;63.17;102492.84;4996426;28;97185;-26
2023/06/24 01:43:01;;;;;;;2.28;0.93;;;;;;;19.01;62.83;102498.34;4994395;28;100172;-27
2023/06/24 01:45:29;;;;;;;2.17;1.10;;;;;;;19.00;62.35;102493.84;4994721;28;100748;-27
2023/06/24 01:48:01;;;;;;;2.85;1.23;;;;;;;18.98;63.49;102491.19;4994517;28;96725;-26
2023/06/24 01:50:31;;;;;;;1.90;1.33;;;;;;;18.95;63.37;102487.78;4996596;28;96539;-26
2023/06/24 01:52:57;;;;;;;2.97;1.30;;;;;;;18.94;63.19;102480.53;4993677;28;102570;-28
2023/06/24 01:55:24;;;;;;;2.42;1.30;;;;;;;18.94;63.03;102486.03;4994043;28;100721;-26
2023/06/24 01:57:51;;;;;;;3.13;1.50;;;;;;;18.95;63.28;102491.44;4994410;28;96724;-27
2023/06/24 02:00:17;;;;;;;3.10;1.65;;;;;;;18.95;63.68;102487.78;4995865;28;96801;-26
2023/06/24 02:02:45;;;;;;;3.10;1.33;;;;;;;18.92;64.07;102497.13;4994129;28;101280;-26
2023/06/24 02:05:11;;;;;;;2.10;1.25;;;;;;;18.84;64.16;102475.69;4993992;28;100561;-26
2023/06/24 02:07:38;;;;;;;3.08;1.33;;;;;;;18.83;63.98;102478.53;4994174;28;97205;-27
2023/06/24 02:10:06;;;;;;;2.08;1.40;;;;;;;18.81;63.99;102480.53;4994464;28;96660;-27
2023/06/24 02:12:32;;;;;;;2.35;1.38;;;;;;;18.82;64.36;102482.28;4993861;28;101094;-26
2023/06/24 02:14:59;;;;;;;4.03;1.80;;;;;;;18.83;64.38;102476.69;4993880;28;101169;-26
2023/06/24 02:17:29;;;;;;;3.22;1.30;;;;;;;18.80;64.63;102473.28;4993672;28;96671;-26
2023/06/24 02:19:55;;;;;;;2.28;1.40;;;;;;;18.83;64.45;102490.44;4994239;28;96882;-28
2023/06/24 02:22:22;;;;;;;1.77;1.20;;;;;;;18.77;65.22;102477.13;4995172;28;99610;-27
2023/06/24 02:24:49;;;;;;;3.20;1.40;;;;;;;18.79;64.37;102485.25;4993263;28;101220;-26
2023/06/24 02:27:15;;;;;;;2.35;1.40;;;;;;;18.79;64.48;102480.63;4994056;28;96689;-26
2023/06/24 02:29:41;;;;;;;3.53;1.58;;;;;;;18.81;64.56;102478.66;4995227;28;96855;-26
2023/06/24 02:32:07;;;;;;;3.40;1.45;;;;;;;18.78;64.93;102475.25;4993388;28;100335;-26
2023/06/24 02:34:33;;;;;;;2.97;1.27;;;;;;;18.74;65.57;102474.56;4995051;28;99359;-26
2023/06/24 02:36:58;;;;;;;2.80;1.27;;;;;;;18.71;65.68;102477.53;4994670;28;96848;-27
2023/06/24 02:39:24;;;;;;;3.10;1.20;;;;;;;18.67;65.29;102478.72;4995353;28;96780;-26
2023/06/24 02:41:49;;;;;;;2.90;1.55;;;;;;;18.62;65.83;102465.31;4994588;28;98028;-27
2023/06/24 02:44:15;;;;;;;1.90;1.15;;;;;;;18.63;66.08;102466.19;4994746;28;99449;-26
2023/06/24 02:46:43;;;;;;;3.33;1.45;;;;;;;18.59;66.35;102465.53;4993947;28;96552;-27
2023/06/24 02:49:12;;;;;;;3.85;1.70;;;;;;;18.65;66.96;102480.69;4993618;28;96809;-27
2023/06/24 02:51:39;;;;;;;4.85;1.55;;;;;;;18.60;66.18;102467.28;4994694;28;99497;-27
2023/06/24 02:54:05;;;;;;;3.53;1.70;;;;;;;18.58;66.89;102466.50;4993250;28;100812;-26
2023/06/24 02:56:32;;;;;;;2.92;1.40;;;;;;;18.57;66.93;102470.25;4993631;28;96509;-27
2023/06/24 02:58:57;;;;;;;2.72;1.55;;;;;;;18.57;66.56;102472.13;4993930;28;96983;-26
2023/06/24 03:01:25;;;;;;;4.38;1.67;;;;;;;18.56;66.84;102463.00;4994726;28;98160;-26
2023/06/24 03:03:55;;;;;;;3.63;1.40;;;;;;;18.61;66.48;102469.03;4994613;28;97977;-27
2023/06/24 03:06:21;;;;;;;2.85;1.70;;;;;;;18.64;66.97;102468.84;4994032;28;96677;-26
2023/06/24 03:08:48;;;;;;;4.90;1.75;;;;;;;18.62;66.64;102467.19;4993217;28;96917;-26
2023/06/24 03:11:14;;;;;;;2.35;1.67;;;;;;;18.57;67.58;102455.66;4993062;28;101031;-26
2023/06/24 03:13:39;;;;;;;4.15;1.67;;;;;;;18.61;67.14;102460.81;4993053;28;101744;-27
2023/06/24 03:16:05;;;;;;;4.68;1.52;;;;;;;18.60;67.73;102459.06;4994823;28;96576;-26
2023/06/24 03:18:31;;;;;;;2.45;1.33;;;;;;;18.62;66.83;102472.69;4994908;28;96838;-26
2023/06/24 03:20:56;;;;;;;3.47;1.70;;;;;;;18.56;66.76;102456.63;4994580;28;97430;-26
2023/06/24 03:23:21;;;;;;;2.53;1.38;;;;;;;18.55;67.23;102464.00;4994941;28;97371;-27
2023/06/24 03:25:47;;;;;;;2.33;1.48;;;;;;;18.55;67.76;102455.75;4994824;28;96683;-27
2023/06/24 03:28:12;;;;;;;2.30;1.45;;;;;;;18.55;67.36;102460.38;4994746;28;96834;-26
2023/06/24 03:30:37;;;;;;;3.13;1.58;;;;;;;18.49;67.41;102453.44;4993760;28;99022;-26
2023/06/24 03:33:03;;;;;;;2.45;1.42;;;;;;;18.50;67.07;102452.47;4993772;28;99167;-26
2023/06/24 03:35:29;;;;;;;4.70;1.73;;;;;;;18.51;67.27;102456.94;4993419;28;96879;-27
2023/06/24 03:37:55;;;;;;;4.22;1.60;;;;;;;18.56;66.89;102464.88;4996138;28;96865;-27
2023/06/24 03:40:20;;;;;;;2.55;1.58;;;;;;;18.54;67.32;102475.06;4997797;28;98108;-27
2023/06/24 03:42:46;;;;;;;3.13;1.35;;;;;;;18.51;67.19;102470.66;4997611;28;100009;-26
2023/06/24 03:45:11;;;;;;;5.43;1.63;;;;;;;18.49;67.10;102471.75;4998129;28;96598;-26
2023/06/24 03:47:38;;;;;;;1.75;1.45;;;;;;;18.49;67.63;102469.88;4998305;28;96798;-28
2023/06/24 03:50:04;;;;;;;2.03;1.42;;;;;;;18.48;67.92;102470.03;4995921;28;101320;-26
2023/06/24 03:52:29;;;;;;;2.38;1.45;;;;;;;18.49;66.70;102469.88;4995984;28;102278;-26
2023/06/24 03:54:55;;;;;;;2.80;1.40;;;;;;;18.48;67.77;102464.53;4997716;28;96452;-26
2023/06/24 03:57:20;;;;;;;5.30;1.83;;;;;;;18.46;68.26;102472.84;4997912;28;96716;-27
2023/06/24 03:59:46;;;;;;;2.90;1.70;;;;;;;18.50;67.24;102476.28;4996025;28;100847;-27
2023/06/24 04:02:13;;;;;;;3.33;1.67;;;;;;;18.48;66.91;102476.38;4997692;28;97300;-26
2023/06/24 04:04:39;;;;;;;3.05;1.55;;;;;;;18.46;66.89;102467.38;4997377;28;96712;-27
2023/06/24 04:07:07;;;;;;;3.03;1.67;;;;;;;18.48;66.73;102479.13;4996289;28;96851;-26
2023/06/24 04:09:35;;;;;;;3.03;1.48;;;;;;;18.48;67.81;102476.38;4997114;28;99516;-27
2023/06/24 04:12:00;;;;;;;2.65;1.63;;;;;;;18.46;67.66;102468.25;4996170;28;100966;-26
2023/06/24 04:14:26;;;;;;;3.80;1.60;;;;;;;18.38;66.67;102459.69;4997349;28;96563;-26
2023/06/24 04:16:51;;;;;;;4.13;1.75;;;;;;;18.40;67.06;102465.03;4997636;28;96774;-27
2023/06/24 04:19:17;;;;;;;3.13;1.73;;;;;;;18.41;66.71;102475.03;4996529;28;99626;-27
2023/06/24 04:21:42;;;;;;;3.15;1.70;;;;;;;18.40;67.00;102476.00;4997171;28;97753;-26
2023/06/24 04:24:07;;;;;;;2.28;1.50;;;;;;;18.45;66.66;102487.56;4997248;28;96541;-26
2023/06/24 04:26:33;;;;;;;2.35;1.38;;;;;;;18.44;67.47;102480.31;4997543;28;96912;-26
2023/06/24 04:28:58;;;;;;;2.75;1.63;;;;;;;18.42;66.76;102469.47;4996763;28;99922;-27
2023/06/24 04:31:24;;;;;;;3.88;1.45;;;;;;;18.50;66.68;102484.50;4996961;28;97919;-26
2023/06/24 04:33:49;;;;;;;3.78;1.55;;;;;;;18.48;67.08;102481.88;4996935;28;96608;-28
2023/06/24 04:36:14;;;;;;;3.15;1.75;;;;;;;18.52;66.44;102490.75;4996789;28;96942;-27
2023/06/24 04:38:40;;;;;;;2.45;1.40;;;;;;;18.53;66.06;102495.28;4996848;28;97665;-28
2023/06/24 04:41:05;;;;;;;3.00;1.50;;;;;;;18.49;66.25;102477.25;4996817;28;96624;-26
2023/06/24 04:43:30;;;;;;;2.13;1.38;;;;;;;18.54;66.41;102486.91;4996381;28;96475;-27
2023/06/24 04:45:56;;;;;;;4.18;1.60;;;;;;;18.50;66.85;102500.97;4995743;28;96955;-26
2023/06/24 04:48:26;;;;;;;3.28;1.67;;;;;;;18.48;67.00;102495.59;4994691;28;100838;-26
2023/06/24 04:50:53;;;;;;;5.70;1.77;;;;;;;18.53;66.56;102498.03;4995474;28;97346;-26
2023/06/24 04:53:18;;;;;;;3.80;1.90;;;;;;;18.52;66.85;102491.66;4995506;28;96703;-27
2023/06/24 04:55:44;;;;;;;4.68;1.75;;;;;;;18.59;67.35;102503.97;4997055;28;96981;-26
2023/06/24 04:58:09;;;;;;;3.13;1.45;;;;;;;18.54;66.00;102492.41;4996602;28;97936;-26
2023/06/24 05:00:34;;;;;;;2.75;1.73;;;;;;;18.56;66.34;102501.41;4996862;28;97902;-26
2023/06/24 05:03:00;;;;;;;3.03;1.73;;;;;;;18.54;66.16;102491.53;4996449;28;96868;-26
2023/06/24 05:05:25;;;;;;;2.70;1.58;;;;;;;18.59;66.02;102489.34;4996842;28;96841;-26
2023/06/24 05:07:51;;;;;;;5.80;1.52;;;;;;;18.61;66.05;102507.47;4995804;28;99287;-26
2023/06/24 05:10:16;;;;;;;3.75;2.00;;;;;;;18.60;66.33;102500.22;4996531;28;97295;-26
2023/06/24 05:12:41;;;;;;;6.40;2.40;;;;;;;18.61;67.01;102509.34;4996800;28;97240;-26
2023/06/24 05:15:07;;;;;;;4.18;2.08;;;;;;;18.60;67.92;102511.19;4996724;28;96790;-26
2023/06/24 05:17:33;;;;;;;3.30;1.92;;;;;;;18.61;66.64;102503.84;4995820;28;99148;-26
2023/06/24 05:19:58;;;;;;;3.67;2.17;;;;;;;18.64;66.42;102509.16;4996176;28;97363;-26
2023/06/24 05:22:24;;;;;;;4.18;2.20;;;;;;;18.72;66.52;102509.47;4996245;28;96634;-26
2023/06/24 05:24:49;;;;;;;3.40;1.98;;;;;;;18.74;66.46;102498.41;4996712;28;96832;-27
2023/06/24 05:27:14;;;;;;;5.65;2.17;;;;;;;18.78;66.87;102499.94;4995832;28;103169;-26
2023/06/24 05:29:40;;;;;;;4.93;2.28;;;;;;;18.84;66.84;102510.53;4996099;28;97706;-26
2023/06/24 05:32:05;;;;;;;3.88;2.13;;;;;;;18.83;67.01;102506.00;4995749;28;96772;-27
2023/06/24 05:34:31;;;;;;;3.75;1.95;;;;;;;18.85;66.44;102501.28;4995847;28;97028;-26
2023/06/24 05:36:56;;;;;;;4.93;2.47;;;;;;;18.94;67.39;102513.50;4995463;28;99446;-26
2023/06/24 05:39:22;;;;;;;5.63;2.35;;;;;;;18.98;67.68;102513.19;4995954;28;98147;-26
2023/06/24 05:41:48;;;;;;;3.60;2.08;;;;;;;18.96;67.42;102509.66;4996003;28;96551;-26
2023/06/24 05:44:14;;;;;;;4.97;2.38;;;;;;;19.07;66.94;102507.03;4996175;28;96791;-26
2023/06/24 05:46:39;;;;;;;4.95;2.70;;;;;;;19.14;66.88;102515.72;4995547;28;99170;-26
2023/06/24 05:49:05;;;;;;;5.65;2.72;;;;;;;19.25;66.54;102509.44;4995826;28;99130;-26
2023/06/24 05:51:30;;;;;;;5.22;2.38;;;;;;;19.33;66.29;102504.28;4994606;28;96583;-27
2023/06/24 05:53:56;;;;;;;5.72;2.50;;;;;;;19.46;65.92;102513.38;4995894;28;96770;-26
2023/06/24 05:56:22;;;;;;;5.53;2.63;;;;;;;19.49;66.53;102509.53;4995384;28;97276;-27
2023/06/24 05:58:48;;;;;;;4.60;2.25;;;;;;;19.59;66.02;102509.75;4993599;28;101394;-27
2023/06/24 06:01:14;;;;;;;5.88;2.70;;;;;;;19.66;66.58;102513.78;4995560;28;96713;-27
2023/06/24 06:03:39;;;;;;;4.68;2.20;;;;;;;19.76;65.75;102519.53;4994296;28;97005;-26
2023/06/24 06:06:05;;;;;;;4.90;2.47;;;;;;;19.82;65.79;102514.44;4995680;28;97486;-27
2023/06/24 06:08:30;;;;;;;5.63;2.80;;;;;;;19.98;65.93;102524.34;4995392;28;97698;-27
2023/06/24 06:10:56;;;;;;;3.88;2.50;;;;;;;20.08;66.61;102522.63;4995830;28;96484;-27
2023/06/24 06:13:21;;;;;;;4.53;2.58;;;;;;;20.15;65.87;102515.69;4996173;28;96785;-26
2023/06/24 06:15:47;;;;;;;8.45;2.92;;;;;;;20.29;65.28;102522.88;4995452;28;98040;-28
2023/06/24 06:18:12;;;;;;;5.25;2.55;;;;;;;20.31;65.48;102520.91;4995116;28;97872;-27
2023/06/24 06:20:37;;;;;;;7.00;2.60;;;;;;;20.40;65.19;102513.78;4994994;28;96469;-28
2023/06/24 06:23:03;;;;;;;6.88;2.72;;;;;;;20.48;65.15;102520.47;4995342;28;96750;-26
2023/06/24 06:25:28;;;;;;;5.68;3.15;;;;;;;20.55;65.55;102510.78;4995507;28;97943;-26
2023/06/24 06:27:54;;;;;;;6.32;3.15;;;;;;;20.61;64.75;102508.53;4995305;28;97806;-26
2023/06/24 06:30:19;;;;;;;3.95;2.40;;;;;;;20.68;64.52;102521.72;4995383;28;96628;-26
2023/06/24 06:32:44;;;;;;;4.75;2.47;;;;;;;20.82;64.17;102528.91;4995199;28;96855;-26
2023/06/24 06:35:10;;;;;;;5.57;2.80;;;;;;;20.94;65.00;102536.19;4994264;28;98441;-26
2023/06/24 06:37:35;;;;;;;4.57;2.53;;;;;;;21.03;64.09;102534.59;4995608;28;97307;-27
2023/06/24 06:40:02;;;;;;;5.50;2.95;;;;;;;21.22;63.75;102534.00;4995347;28;96497;-26
2023/06/24 06:42:29;;;;;;;7.93;2.95;;;;;;;21.30;63.46;102531.50;4993691;28;96882;-26
2023/06/24 06:44:54;;;;;;;6.32;2.60;;;;;;;21.30;63.57;102531.50;4994418;28;97375;-28
2023/06/24 06:47:19;;;;;;;5.68;2.63;;;;;;;21.42;63.74;102529.69;4994749;28;97811;-26
2023/06/24 06:49:45;;;;;;;5.40;2.88;;;;;;;21.50;63.08;102527.19;4995267;28;96607;-27
2023/06/24 06:52:10;;;;;;;5.03;2.72;;;;;;;21.57;62.87;102524.78;4995558;28;96841;-26
2023/06/24 06:54:35;;;;;;;5.47;2.70;;;;;;;21.65;63.37;102535.22;4994524;28;99647;-27
2023/06/24 06:57:04;;;;;;;6.95;3.05;;;;;;;21.69;63.29;102529.31;4994687;28;99155;-26
2023/06/24 06:59:33;;;;;;;5.88;2.63;;;;;;;21.74;62.70;102521.53;4993455;28;96603;-26
2023/06/24 07:01:59;;;;;;;7.68;2.92;;;;;;;21.87;63.21;102521.38;4993889;28;96890;-27
2023/06/24 07:04:24;;;;;;;5.32;2.85;;;;;;;21.99;62.97;102534.16;4994779;28;98213;-26
2023/06/24 07:06:49;;;;;;;7.35;3.30;;;;;;;22.13;62.51;102530.25;4994440;28;99249;-26
2023/06/24 07:09:15;;;;;;;4.95;2.85;;;;;;;22.18;62.25;102529.88;4994532;28;96587;-26
2023/06/24 07:11:41;;;;;;;5.05;2.90;;;;;;;22.19;62.67;102523.31;4994854;28;96808;-27
2023/06/24 07:14:07;;;;;;;7.18;2.70;;;;;;;22.19;61.76;102523.31;4992857;28;100828;-28
2023/06/24 07:16:32;;;;;;;5.50;2.58;;;;;;;22.20;61.85;102525.09;4994515;28;97284;-26
2023/06/24 07:18:57;;;;;;;7.35;3.00;;;;;;;22.18;62.54;102519.69;4994736;28;96535;-27
2023/06/24 07:21:23;;;;;;;6.60;2.75;;;;;;;22.35;62.01;102531.22;4994557;28;96737;-28
2023/06/24 07:23:48;;;;;;;4.47;2.45;;;;;;;22.48;61.90;102519.00;4994452;28;98202;-26
2023/06/24 07:26:14;;;;;;;5.10;2.72;;;;;;;22.51;61.15;102517.88;4994758;28;97360;-26
2023/06/24 07:28:39;;;;;;;4.32;2.70;;;;;;;22.64;61.64;102523.19;4994655;28;96497;-26
2023/06/24 07:31:04;;;;;;;7.93;3.13;;;;;;;22.79;60.98;102524.66;4994891;28;96820;-27
2023/06/24 07:33:30;;;;;;;5.85;2.80;;;;;;;22.96;60.94;102516.78;4993310;28;99213;-27
2023/06/24 07:35:56;;;;;;;6.57;3.25;;;;;;;22.98;60.81;102528.59;4992048;28;100903;-27
2023/06/24 07:38:22;;;;;;;4.47;2.60;;;;;;;23.02;61.15;102525.41;4993178;28;96598;-27
2023/06/24 07:40:47;;;;;;;7.35;2.60;;;;;;;23.23;60.53;102532.84;4994542;28;96848;-27
2023/06/24 07:43:13;;;;;;;5.40;2.30;;;;;;;23.36;60.45;102529.84;4994245;28;98116;-27
2023/06/24 07:45:38;;;;;;;4.72;2.58;;;;;;;23.41;59.54;102531.19;4993928;28;99772;-26
2023/06/24 07:48:04;;;;;;;4.93;2.40;;;;;;;23.39;59.28;102533.22;4994770;28;96514;-27
2023/06/24 07:50:31;;;;;;;6.43;2.65;;;;;;;23.49;59.46;102524.97;4993403;28;96813;-26
2023/06/24 07:52:56;;;;;;;7.78;2.95;;;;;;;23.65;59.12;102536.41;4992620;28;101290;-26
2023/06/24 07:55:21;;;;;;;5.03;2.92;;;;;;;23.74;59.04;102519.00;4994126;28;97896;-26
2023/06/24 07:57:47;;;;;;;5.00;2.53;;;;;;;23.65;58.57;102528.09;4993920;28;96445;-28
2023/06/24 08:00:14;;;;;;;7.30;3.22;;;;;;;23.59;57.17;102534.19;4994028;28;96985;-26
2023/06/24 08:02:40;;;;;;;5.45;3.10;;;;;;;23.64;58.05;102536.53;4993981;28;99431;-26
2023/06/24 08:05:06;;;;;;;5.90;2.72;;;;;;;23.79;58.33;102534.28;4992483;28;100783;-26
2023/06/24 08:07:31;;;;;;;9.90;2.92;;;;;;;23.95;57.74;102526.34;4994214;28;96604;-27
2023/06/24 08:09:56;;;;;;;6.72;3.25;;;;;;;24.06;58.07;102522.59;4993823;28;96908;-26
2023/06/24 08:12:22;;;;;;;7.30;3.00;;;;;;;24.11;57.75;102525.81;4993847;28;97321;-32
2023/06/24 08:14:47;;;;;;;7.15;3.08;;;;;;;24.24;57.69;102525.53;4994091;28;97918;-26
2023/06/24 08:17:12;;;;;;;5.88;3.08;;;;;;;24.43;57.11;102525.59;4994154;28;96711;-26
2023/06/24 08:19:38;;;;;;;6.15;2.85;;;;;;;24.52;57.16;102515.53;4993916;28;96868;-26
2023/06/24 08:22:04;;;;;;;7.35;3.00;;;;;;;24.71;57.08;102531.28;4993688;28;97881;-27
2023/06/24 08:24:29;;;;;;;5.25;3.10;;;;;;;24.83;57.00;102530.13;4995649;28;101117;-27
2023/06/24 08:26:54;;;;;;;8.10;3.10;;;;;;;24.91;57.05;102523.84;4997617;28;96424;-26
2023/06/24 08:29:20;;;;;;;5.93;3.33;;;;;;;25.05;57.24;102526.16;4997538;28;96779;-26
2023/06/24 08:31:45;;;;;;;8.35;3.30;;;;;;;25.14;56.37;102535.47;4996707;28;99457;-26
2023/06/24 08:34:10;;;;;;;7.35;3.13;;;;;;;25.22;56.61;102521.78;4996700;28;97416;-27
2023/06/24 08:36:37;;;;;;;7.15;3.40;;;;;;;25.37;56.05;102522.16;4996829;28;96699;-26
2023/06/24 08:39:02;;;;;;;7.15;3.67;;;;;;;25.41;56.05;102523.63;4997684;28;96819;-27
2023/06/24 08:41:29;;;;;;;7.18;3.67;;;;;;;25.54;55.71;102526.91;4996695;28;99193;-27
2023/06/24 08:43:54;;;;;;;7.55;3.25;;;;;;;25.49;56.21;102531.19;4996469;28;99183;-27
2023/06/24 08:46:21;;;;;;;6.90;3.20;;;;;;;25.56;55.83;102529.56;4996336;28;96642;-26
2023/06/24 08:48:48;;;;;;;6.63;3.42;;;;;;;25.63;56.06;102525.13;4996922;28;96814;-26
2023/06/24 08:51:18;;;;;;;7.32;3.63;;;;;;;25.81;55.77;102523.31;4995233;28;100644;-27
2023/06/24 08:53:44;;;;;;;9.65;3.67;;;;;;;25.93;55.71;102525.88;4995157;28;101784;-27
2023/06/24 08:56:10;;;;;;;5.35;2.70;;;;;;;26.06;55.34;102518.09;4995599;28;96681;-26
2023/06/24 08:58:35;;;;;;;6.63;3.28;;;;;;;26.16;55.05;102515.25;4996764;28;96816;-27
2023/06/24 09:01:02;;;;;;;5.18;3.10;;;;;;;26.25;55.70;102509.63;4996512;28;97970;-26
2023/06/24 09:03:27;;;;;;;6.68;3.45;;;;;;;26.39;54.52;102512.88;4995511;28;101249;-26
2023/06/24 09:05:53;;;;;;;5.68;3.05;;;;;;;26.48;54.67;102520.25;4996914;28;96653;-27
2023/06/24 09:08:18;;;;;;;9.55;3.55;;;;;;;26.55;54.34;102515.84;4996813;28;96718;-26
2023/06/24 09:10:43;;;;;;;5.55;2.85;;;;;;;26.68;54.02;102510.75;4995832;28;97916;-26
2023/06/24 09:13:09;;;;;;;5.82;2.92;;;;;;;26.80;53.85;102514.16;4996234;28;98703;-26
2023/06/24 09:15:35;;;;;;;5.20;2.85;;;;;;;26.66;52.93;102503.63;4996473;28;96625;-26
2023/06/24 09:18:02;;;;;;;5.88;3.13;;;;;;;26.71;53.61;102508.69;4995265;28;96733;-27
2023/06/24 09:20:29;;;;;;;6.57;2.78;;;;;;;26.71;53.79;102503.13;4994753;28;100925;-26
2023/06/24 09:23:03;;;;;;;8.98;3.90;;;;;;;26.62;53.69;102516.94;4994661;28;100823;-26
2023/06/24 09:25:29;;;;;;;9.93;3.85;;;;;;;26.78;53.34;102515.34;4996333;28;96679;-26
2023/06/24 09:27:55;;;;;;;7.63;3.20;;;;;;;26.90;53.34;102509.38;4995321;28;96926;-26
2023/06/24 09:30:24;;;;;;;6.10;3.20;;;;;;;26.91;52.80;102513.06;4994456;28;101143;-26
2023/06/24 09:32:51;;;;;;;6.07;3.20;;;;;;;26.94;53.09;102514.63;4995752;28;99227;-26
2023/06/24 09:35:22;;;;;;;6.03;2.83;;;;;;;26.97;52.84;102506.81;4992828;28;96994;-26
2023/06/24 09:37:55;;;;;;;6.10;3.03;;;;;;;26.97;51.56;102509.59;4996228;28;96823;-26
2023/06/24 09:40:21;;;;;;;5.43;2.75;;;;;;;27.08;52.49;102501.00;4994445;28;101030;-26
2023/06/24 09:42:57;;;;;;;6.43;3.28;;;;;;;27.22;52.23;102493.09;4994366;28;101124;-26
2023/06/24 09:45:28;;;;;;;5.40;3.35;;;;;;;27.37;52.02;102496.19;4994694;28;96702;-26
2023/06/24 09:47:54;;;;;;;6.17;2.80;;;;;;;27.57;51.79;102508.78;4994816;28;96954;-26
2023/06/24 09:50:20;;;;;;;8.00;4.10;;;;;;;27.43;51.80;102499.16;4995697;28;98519;-26
2023/06/24 09:52:47;;;;;;;7.60;2.97;;;;;;;27.51;51.69;102502.00;4996224;28;97876;-27
2023/06/24 09:55:15;;;;;;;6.43;3.30;;;;;;;27.65;51.98;102506.06;4994798;28;96626;-26
2023/06/24 09:57:44;;;;;;;4.20;3.08;;;;;;;27.71;52.16;102490.59;4995805;28;96819;-26
2023/06/24 10:00:10;;;;;;;6.03;3.03;;;;;;;27.75;50.73;102503.16;4993677;28;101325;-27
2023/06/24 10:02:36;;;;;;;7.10;3.25;;;;;;;27.60;50.97;102494.56;4995639;28;97840;-26
2023/06/24 10:05:02;;;;;;;8.38;3.42;;;;;;;27.56;50.65;102503.41;4994316;28;96665;-26
2023/06/24 10:07:28;;;;;;;7.82;3.25;;;;;;;27.58;50.55;102492.97;4995763;28;96833;-27
2023/06/24 10:09:54;;;;;;;5.78;3.30;;;;;;;27.66;50.93;102493.00;4993843;28;101525;-27
2023/06/24 10:12:20;;;;;;;4.70;2.70;;;;;;;27.85;50.59;102501.13;4995482;28;97982;-26
2023/06/24 10:14:45;;;;;;;6.22;3.45;;;;;;;28.04;50.46;102502.75;4994416;28;96564;-26
2023/06/24 10:17:11;;;;;;;8.27;3.70;;;;;;;28.15;50.19;102491.31;4996089;28;96856;-27
2023/06/24 10:19:39;;;;;;;5.93;3.08;;;;;;;28.21;49.66;102495.31;4995225;28;98488;-27
2023/06/24 10:22:07;;;;;;;7.05;3.15;;;;;;;28.20;48.99;102501.03;4993719;28;100990;-26
2023/06/24 10:24:35;;;;;;;4.88;2.63;;;;;;;28.30;49.07;102491.50;4993626;28;96768;-26
2023/06/24 10:27:05;;;;;;;6.88;3.00;;;;;;;28.38;48.34;102488.72;4993963;28;96837;-26
2023/06/24 10:29:38;;;;;;;7.28;3.20;;;;;;;28.44;48.98;102500.25;4993644;28;101140;-27
2023/06/24 10:32:07;;;;;;;8.25;2.85;;;;;;;28.59;49.22;102498.53;4993253;28;101479;-27
2023/06/24 10:34:38;;;;;;;9.13;3.13;;;;;;;28.71;48.49;102491.56;4993861;28;96614;-26
2023/06/24 10:37:03;;;;;;;;;;;;;;;28.70;47.12;102489.84;4994509;28;96916;-26
2023/06/24 10:39:38;;;;;;;6.63;3.10;;;;;;;28.54;47.30;102487.03;4995269;28;98042;-27
2023/06/24 10:42:35;;;;;;;6.25;2.88;;;;;;;28.54;48.82;102485.13;4995595;28;97981;-26
2023/06/24 10:45:00;;;;;;;7.60;2.95;;;;;;;28.75;48.80;102495.75;4993093;28;97057;-26
2023/06/24 10:47:27;;;;;;;5.50;3.08;;;;;;;28.80;48.14;102481.28;4993876;28;96968;-26
2023/06/24 10:49:52;;;;;;;5.60;2.67;;;;;;;28.79;47.98;102477.63;4992992;28;101057;-26
2023/06/24 10:52:21;;;;;;;6.95;2.83;;;;;;;28.67;47.83;102472.56;4994978;28;97832;-26
2023/06/24 10:54:46;;;;;;;5.00;2.47;;;;;;;28.75;47.71;102473.44;4993675;28;96679;-26
2023/06/24 10:57:12;;;;;;;4.05;2.40;;;;;;;28.74;47.69;102476.41;4995070;28;96844;-26
2023/06/24 10:59:42;;;;;;;4.85;2.63;;;;;;;28.65;46.61;102464.38;4993328;28;100967;-26
2023/06/24 11:02:11;;;;;;;4.43;2.40;;;;;;;28.59;46.77;102462.28;4993300;28;100965;-26
2023/06/24 11:04:57;;;;;;;4.70;2.38;;;;;;;28.79;46.47;102471.16;4994741;28;96608;-27
2023/06/24 11:07:27;;;;;;;5.82;2.53;;;;;;;28.98;46.78;102448.50;4993884;28;96836;-29
2023/06/24 11:09:58;;;;;;;6.03;3.07;;;;;;;29.25;45.71;102467.78;4993017;28;103517;-27
2023/06/24 11:12:35;;;;;;;4.72;2.53;;;;;;;28.99;44.79;102463.31;4993164;28;101444;-26
2023/06/24 11:15:03;;;;;;;4.78;2.55;;;;;;;29.07;46.88;102466.09;4994608;28;96695;-27
2023/06/24 11:17:28;;;;;;;4.03;2.20;;;;;;;29.25;46.57;102456.63;4993297;28;96818;-26
2023/06/24 11:19:55;;;;;;;4.75;2.70;;;;;;;29.45;46.40;102451.53;4994310;28;99462;-27
2023/06/24 11:22:22;;;;;;;4.38;2.53;;;;;;;29.43;46.03;102463.72;4993042;28;101589;-26